createdAt,value
2023-09-08T00:02:05.624Z,101608.09
2023-09-08T00:04:32.290Z,101606.47
2023-09-08T00:06:58.899Z,101611.91
2023-09-08T00:09:25.555Z,101611.94
2023-09-08T00:11:52.094Z,101611.19
2023-09-08T00:14:18.878Z,101613.09
2023-09-08T00:16:45.537Z,101616.63
2023-09-08T00:19:12.988Z,101626.34
2023-09-08T00:21:39.613Z,101620.25
2023-09-08T00:24:06.457Z,101618.56
2023-09-08T00:26:33.651Z,101611.63
2023-09-08T00:29:00.238Z,101612.56
2023-09-08T00:31:26.793Z,101611.75
2023-09-08T00:33:53.434Z,101610.13
2023-09-08T00:36:20.171Z,101607.53
2023-09-08T00:38:46.728Z,101612.84
2023-09-08T00:41:13.284Z,101601.44
2023-09-08T00:43:39.823Z,101601.53
2023-09-08T00:46:07.908Z,101596.34
2023-09-08T00:48:35.623Z,101596.44
2023-09-08T00:51:03.255Z,101599.09
2023-09-08T00:53:30.221Z,101601.84
2023-09-08T00:55:57.534Z,101600.19
2023-09-08T00:58:24.117Z,101610.81
2023-09-08T01:00:50.704Z,101604.75
2023-09-08T01:03:17.439Z,101602.19
2023-09-08T01:05:45.559Z,101597.09
2023-09-08T01:08:12.166Z,101606.81
2023-09-08T01:10:38.783Z,101604.28
2023-09-08T01:13:05.312Z,101606.06
2023-09-08T01:15:31.917Z,101613.13
2023-09-08T01:17:59.708Z,101612.28
2023-09-08T01:21:04.524Z,101602.72
2023-09-08T01:24:26.052Z,101601.00
2023-09-08T01:26:52.684Z,101604.53
2023-09-08T01:29:20.409Z,101595.00
2023-09-08T01:31:47.897Z,101599.44
2023-09-08T01:34:14.720Z,101598.56
2023-09-08T01:36:41.316Z,101601.16
2023-09-08T01:39:07.892Z,101603.03
2023-09-08T01:41:34.517Z,101605.66
2023-09-08T01:44:01.989Z,101599.53
2023-09-08T01:46:28.545Z,101607.47
2023-09-08T01:48:55.206Z,101602.25
2023-09-08T01:51:21.816Z,101593.56
2023-09-08T01:53:48.336Z,101598.97
2023-09-08T01:56:14.871Z,101592.91
2023-09-08T01:58:41.409Z,101592.13
2023-09-08T02:01:08.168Z,101589.56
2023-09-08T02:03:35.556Z,101589.69
2023-09-08T02:06:02.130Z,101588.03
2023-09-08T02:08:28.658Z,101591.59
2023-09-08T02:10:55.201Z,101594.38
2023-09-08T02:13:22.960Z,101596.25
2023-09-08T02:15:49.777Z,101585.88
2023-09-08T02:18:16.444Z,101584.25
2023-09-08T02:20:42.989Z,101580.81
2023-09-08T02:23:09.666Z,101591.34
2023-09-08T02:25:36.228Z,101591.38
2023-09-08T02:28:03.049Z,101589.69
2023-09-08T02:30:29.738Z,101583.63
2023-09-08T02:32:57.284Z,101581.97
2023-09-08T02:35:25.073Z,101584.63
2023-09-08T02:37:52.820Z,101583.00
2023-09-08T02:40:20.392Z,101584.78
2023-09-08T02:42:47.445Z,101584.88
2023-09-08T02:45:14.198Z,101591.06
2023-09-08T02:47:40.848Z,101588.47
2023-09-08T02:50:09.190Z,101584.16
2023-09-08T02:52:35.762Z,101580.69
2023-09-08T02:55:02.457Z,101580.78
2023-09-08T02:57:29.013Z,101577.34
2023-09-08T02:59:55.614Z,101569.56
2023-09-08T03:02:22.529Z,101569.63
2023-09-08T03:04:49.233Z,101568.78
2023-09-08T03:07:15.924Z,101567.06
2023-09-08T03:09:43.809Z,101575.00
2023-09-08T03:12:10.390Z,101563.69
2023-09-08T03:14:36.978Z,101569.84
2023-09-08T03:17:03.729Z,101572.47
2023-09-08T03:19:31.701Z,101570.72
2023-09-08T03:21:58.244Z,101584.75
2023-09-08T03:24:25.986Z,101575.13
2023-09-08T03:26:52.558Z,101567.31
2023-09-08T03:29:19.161Z,101575.19
2023-09-08T03:31:45.841Z,101567.34
2023-09-08T03:34:12.617Z,101565.63
2023-09-08T03:36:39.425Z,101558.59
2023-09-08T03:39:06.164Z,101565.63
2023-09-08T03:41:32.651Z,101552.50
2023-09-08T03:43:59.943Z,101546.44
2023-09-08T03:46:26.614Z,101548.31
2023-09-08T03:48:53.572Z,101554.53
2023-09-08T03:51:20.382Z,101566.00
2023-09-08T03:53:47.031Z,101563.47
2023-09-08T03:56:13.604Z,101551.25
2023-09-08T03:58:40.558Z,101550.41
2023-09-08T04:01:07.152Z,101554.88
2023-09-08T04:03:34.153Z,101562.78
2023-09-08T04:06:01.077Z,101557.59
2023-09-08T04:08:27.790Z,101559.38
2023-09-08T04:10:54.408Z,101560.28
2023-09-08T04:13:21.548Z,101569.06
2023-09-08T04:15:48.204Z,101570.94
2023-09-08T04:18:15.215Z,101580.66
2023-09-08T04:20:41.824Z,101580.69
2023-09-08T04:23:08.414Z,101579.88
2023-09-08T04:25:34.918Z,101583.44
2023-09-08T04:28:01.498Z,101586.91
2023-09-08T04:30:28.267Z,101587.81
2023-09-08T04:32:54.927Z,101593.97
2023-09-08T04:35:21.445Z,101597.50
2023-09-08T04:37:48.011Z,101601.91
2023-09-08T04:40:14.535Z,101608.03
2023-09-08T04:42:41.267Z,101604.53
2023-09-08T04:45:09.041Z,101610.66
2023-09-08T04:47:36.957Z,101610.66
2023-09-08T04:50:05.553Z,101605.41
2023-09-08T04:52:32.250Z,101605.41
2023-09-08T04:55:00.208Z,101603.69
2023-09-08T04:57:27.256Z,101604.59
2023-09-08T04:59:57.772Z,101603.75
2023-09-08T05:02:24.773Z,101612.50
2023-09-08T05:04:51.733Z,101623.00
2023-09-08T05:07:18.359Z,101617.75
2023-09-08T05:09:44.848Z,101602.03
2023-09-08T05:12:11.722Z,101603.81
2023-09-08T05:14:38.531Z,101604.75
2023-09-08T05:17:05.245Z,101601.25
2023-09-08T05:19:32.241Z,101603.88
2023-09-08T05:21:58.838Z,101613.53
2023-09-08T05:24:25.874Z,101610.91
2023-09-08T05:26:52.503Z,101611.75
2023-09-08T05:29:20.388Z,101612.66
2023-09-08T05:31:46.978Z,101620.50
2023-09-08T05:34:14.428Z,101624.84
2023-09-08T05:36:41.497Z,101630.03
2023-09-08T05:39:08.729Z,101626.53
2023-09-08T05:41:35.338Z,101623.00
2023-09-08T05:44:03.339Z,101626.47
2023-09-08T05:46:30.218Z,101629.91
2023-09-08T05:48:58.124Z,101622.88
2023-09-08T05:51:25.356Z,101627.25
2023-09-08T05:53:53.807Z,101628.97
2023-09-08T05:56:20.928Z,101628.94
2023-09-08T05:58:47.682Z,101632.41
2023-09-08T06:01:14.387Z,101632.38
2023-09-08T06:03:41.062Z,101638.44
2023-09-08T06:06:07.803Z,101641.03
2023-09-08T06:08:34.657Z,101645.38
2023-09-08T06:11:02.098Z,101649.63
2023-09-08T06:13:28.881Z,101650.44
2023-09-08T06:15:55.540Z,101656.50
2023-09-08T06:18:22.085Z,101653.81
2023-09-08T06:20:49.392Z,101654.63
2023-09-08T06:23:17.067Z,101656.28
2023-09-08T06:25:43.607Z,101651.00
2023-09-08T06:28:10.462Z,101655.28
2023-09-08T06:30:37.797Z,101650.88
2023-09-08T06:33:04.587Z,101655.16
2023-09-08T06:35:31.261Z,101653.34
2023-09-08T06:37:57.824Z,101659.38
2023-09-08T06:40:25.712Z,101654.91
2023-09-08T06:42:52.423Z,101647.88
2023-09-08T06:45:28.807Z,101656.50
2023-09-08T06:47:55.513Z,101659.06
2023-09-08T06:50:23.064Z,101657.22
2023-09-08T06:52:53.040Z,101651.84
2023-09-08T06:55:20.000Z,101661.34
2023-09-08T06:57:48.952Z,101656.84
2023-09-08T07:00:16.107Z,101652.31
2023-09-08T07:02:42.863Z,101650.44
2023-09-08T07:05:11.131Z,101652.91
2023-09-08T07:07:38.500Z,101664.97
2023-09-08T07:10:05.607Z,101669.25
2023-09-08T07:12:32.336Z,101669.06
2023-09-08T07:14:59.253Z,101665.38
2023-09-08T07:17:26.384Z,101665.22
2023-09-08T07:19:53.749Z,101678.16
2023-09-08T07:22:21.466Z,101678.84
2023-09-08T07:24:48.156Z,101670.75
2023-09-08T07:27:16.925Z,101667.94
2023-09-08T07:29:43.626Z,101665.13
2023-09-08T07:32:10.478Z,101670.25
2023-09-08T07:34:37.100Z,101676.22
2023-09-08T07:37:04.060Z,101671.59
2023-09-08T07:39:30.663Z,101673.16
2023-09-08T07:41:59.088Z,101675.56
2023-09-08T07:44:28.697Z,101675.34
2023-09-08T07:46:55.644Z,101669.81
2023-09-08T07:49:22.298Z,101673.16
2023-09-08T07:51:48.845Z,101679.03
2023-09-08T07:54:15.657Z,101674.41
2023-09-08T07:56:42.234Z,101670.69
2023-09-08T07:59:08.927Z,101673.94
2023-09-08T08:01:35.562Z,101668.50
2023-09-08T08:04:02.234Z,101670.16
2023-09-08T08:06:28.779Z,101668.28
2023-09-08T08:08:55.380Z,101669.91
2023-09-08T08:11:21.975Z,101681.97
2023-09-08T08:13:48.671Z,101685.25
2023-09-08T08:16:15.228Z,101691.94
2023-09-08T08:18:42.010Z,101686.31
2023-09-08T08:21:08.734Z,101678.81
2023-09-08T08:23:35.443Z,101685.28
2023-09-08T08:26:02.999Z,101689.16
2023-09-08T08:28:29.532Z,101700.84
2023-09-08T08:30:56.107Z,101685.28
2023-09-08T08:33:22.877Z,101684.63
2023-09-08T08:35:50.615Z,101687.63
2023-09-08T08:38:17.187Z,101692.31
2023-09-08T08:40:43.732Z,101697.00
2023-09-08T08:43:10.614Z,101698.25
2023-09-08T08:45:39.106Z,101695.91
2023-09-08T08:48:08.432Z,101699.66
2023-09-08T08:50:36.924Z,101701.66
2023-09-08T08:53:03.658Z,101693.94
2023-09-08T08:55:31.763Z,101698.75
2023-09-08T08:58:05.082Z,101700.88
2023-09-08T09:00:34.707Z,101700.16
2023-09-08T09:03:12.099Z,101698.56
2023-09-08T09:05:44.639Z,101695.34
2023-09-08T09:08:14.304Z,101695.69
2023-09-08T09:10:40.811Z,101709.19
2023-09-08T09:13:07.341Z,101712.03
2023-09-08T09:15:33.993Z,101714.78
2023-09-08T09:18:07.783Z,101718.06
2023-09-08T09:20:35.322Z,101713.00
2023-09-08T09:23:02.091Z,101709.59
2023-09-08T09:25:31.298Z,101703.59
2023-09-08T09:28:00.245Z,101701.97
2023-09-08T09:30:27.720Z,101705.50
2023-09-08T09:33:05.307Z,101699.06
2023-09-08T09:35:49.267Z,101697.63
2023-09-08T09:38:15.806Z,101699.31
2023-09-08T09:40:42.465Z,101698.59
2023-09-08T09:43:09.570Z,101704.88
2023-09-08T09:45:38.002Z,101694.88
2023-09-08T09:48:05.729Z,101684.63
2023-09-08T09:50:34.169Z,101690.44
2023-09-08T09:53:03.127Z,101689.22
2023-09-08T09:55:29.876Z,101691.97
2023-09-08T09:57:58.237Z,101692.03
2023-09-08T10:00:26.820Z,101687.63
2023-09-08T10:02:54.982Z,101696.38
2023-09-08T10:05:22.069Z,101695.13
2023-09-08T10:07:48.865Z,101695.75
2023-09-08T10:10:16.749Z,101689.84
2023-09-08T10:12:50.190Z,101694.34
2023-09-08T10:15:21.600Z,101691.44
2023-09-08T10:17:53.762Z,101700.66
2023-09-08T10:20:21.334Z,101697.25
2023-09-08T10:22:53.882Z,101697.72
2023-09-08T10:25:22.306Z,101700.06
2023-09-08T10:27:49.581Z,101697.47
2023-09-08T10:30:17.535Z,101686.75
2023-09-08T10:32:44.507Z,101683.34
2023-09-08T10:35:11.631Z,101676.22
2023-09-08T10:37:38.145Z,101684.56
2023-09-08T10:40:22.385Z,101678.97
2023-09-08T10:42:49.698Z,101677.16
2023-09-08T10:45:18.976Z,101683.72
2023-09-08T10:47:48.592Z,101680.53
2023-09-08T10:50:19.425Z,101680.97
2023-09-08T10:53:04.613Z,101685.91
2023-09-08T10:55:40.321Z,101682.28
2023-09-08T10:58:06.807Z,101679.19
2023-09-08T11:00:52.504Z,101688.59
2023-09-08T11:03:28.480Z,101687.88
2023-09-08T11:05:55.256Z,101679.78
2023-09-08T11:08:22.452Z,101683.03
2023-09-08T11:10:49.941Z,101677.16
2023-09-08T11:13:16.454Z,101679.31
2023-09-08T11:15:43.176Z,101677.59
2023-09-08T11:18:10.144Z,101678.78
2023-09-08T11:20:36.796Z,101675.34
2023-09-08T11:23:04.487Z,101673.19
2023-09-08T11:25:31.085Z,101673.72
2023-09-08T11:27:58.219Z,101668.38
2023-09-08T11:30:26.206Z,101663.69
2023-09-08T11:32:52.851Z,101674.84
2023-09-08T11:35:19.741Z,101672.28
2023-09-08T11:37:46.226Z,101683.16
2023-09-08T11:40:13.684Z,101682.63
2023-09-08T11:42:41.689Z,101691.06
2023-09-08T11:45:08.750Z,101691.69
2023-09-08T11:47:35.283Z,101682.91
2023-09-08T11:50:03.488Z,101680.13
2023-09-08T11:52:29.998Z,101681.75
2023-09-08T11:55:06.312Z,101680.75
2023-09-08T11:57:34.562Z,101678.63
2023-09-08T12:00:02.574Z,101673.03
2023-09-08T12:02:35.172Z,101684.28
2023-09-08T12:05:02.549Z,101680.22
2023-09-08T12:07:29.460Z,101671.75
2023-09-08T12:09:56.102Z,101679.53
2023-09-08T12:12:22.695Z,101681.03
2023-09-08T12:14:49.158Z,101679.84
2023-09-08T12:17:15.743Z,101675.94
2023-09-08T12:19:42.269Z,101680.63
2023-09-08T12:22:09.020Z,101675.69
2023-09-08T12:24:49.712Z,101674.13
2023-09-08T12:27:17.577Z,101672.75
2023-09-08T12:30:04.619Z,101667.03
2023-09-08T12:32:32.855Z,101671.31
2023-09-08T12:35:00.547Z,101659.50
2023-09-08T12:37:27.341Z,101662.81
2023-09-08T12:39:54.282Z,101657.94
2023-09-08T12:42:21.056Z,101651.50
2023-09-08T12:44:48.733Z,101655.03
2023-09-08T12:47:15.389Z,101657.47
2023-09-08T12:49:41.923Z,101653.59
2023-09-08T12:52:08.640Z,101653.13
2023-09-08T12:54:35.149Z,101650.06
2023-09-08T12:57:03.775Z,101648.75
2023-09-08T12:59:31.872Z,101648.53
2023-09-08T13:01:58.359Z,101652.78
2023-09-08T13:04:24.944Z,101641.75
2023-09-08T13:06:52.013Z,101645.03
2023-09-08T13:09:18.668Z,101640.28
2023-09-08T13:11:45.191Z,101635.28
2023-09-08T13:14:11.750Z,101636.78
2023-09-08T13:16:38.322Z,101636.50
2023-09-08T13:19:05.217Z,101635.44
2023-09-08T13:21:31.761Z,101629.81
2023-09-08T13:23:58.283Z,101629.59
2023-09-08T13:26:24.854Z,101623.69
2023-09-08T13:28:51.434Z,101625.19
2023-09-08T13:31:18.072Z,101617.03
2023-09-08T13:33:45.008Z,101618.59
2023-09-08T13:36:11.507Z,101621.03
2023-09-08T13:38:38.692Z,101617.16
2023-09-08T13:41:06.272Z,101613.22
2023-09-08T13:43:32.897Z,101605.94
2023-09-08T13:45:59.352Z,101607.50
2023-09-08T13:48:26.311Z,101608.97
2023-09-08T13:50:54.306Z,101597.84
2023-09-08T13:53:21.906Z,101598.31
2023-09-08T13:55:51.282Z,101600.78
2023-09-08T13:58:20.592Z,101595.13
2023-09-08T14:00:52.254Z,101596.84
2023-09-08T14:05:52.840Z,101594.03
2023-09-08T14:08:28.850Z,101589.66
2023-09-08T14:13:37.093Z,101585.13
2023-09-08T14:16:04.176Z,101592.34
2023-09-08T14:18:31.008Z,101590.50
2023-09-08T14:20:57.623Z,101588.53
2023-09-08T14:23:24.156Z,101585.59
2023-09-08T14:25:50.764Z,101580.72
2023-09-08T14:28:17.385Z,101578.59
2023-09-08T14:30:43.981Z,101578.38
2023-09-08T14:33:10.642Z,101581.91
2023-09-08T14:35:42.818Z,101576.53
2023-09-08T14:38:09.487Z,101577.25
2023-09-08T14:40:36.141Z,101574.56
2023-09-08T14:43:02.737Z,101572.72
2023-09-08T14:45:29.261Z,101564.66
2023-09-08T14:47:56.379Z,101565.66
2023-09-08T14:50:24.220Z,101577.50
2023-09-08T14:52:50.823Z,101572.38
2023-09-08T14:55:17.379Z,101566.69
2023-09-08T14:57:43.959Z,101561.00
2023-09-08T15:00:10.969Z,101566.59
2023-09-08T15:02:37.582Z,101559.16
2023-09-08T15:05:04.346Z,101557.84
2023-09-08T15:07:30.855Z,101558.09
2023-09-08T15:09:57.344Z,101548.34
2023-09-08T15:12:23.924Z,101553.13
2023-09-08T15:14:50.444Z,101554.47
2023-09-08T15:17:16.983Z,101554.69
2023-09-08T15:19:43.684Z,101545.44
2023-09-08T15:22:10.207Z,101551.28
2023-09-08T15:24:37.496Z,101543.63
2023-09-08T15:27:04.419Z,101549.94
2023-09-08T15:29:31.168Z,101546.69
2023-09-08T15:31:57.893Z,101552.16
2023-09-08T15:34:27.119Z,101544.00
2023-09-08T15:36:54.115Z,101546.78
2023-09-08T15:39:20.718Z,101538.63
2023-09-08T15:41:47.424Z,101546.56
2023-09-08T15:44:14.010Z,101540.94
2023-09-08T15:46:40.826Z,101540.72
2023-09-08T15:49:07.451Z,101549.34
2023-09-08T15:51:34.121Z,101543.00
2023-09-08T15:54:00.642Z,101538.50
2023-09-08T15:56:27.178Z,101537.53
2023-09-08T15:58:53.659Z,101546.53
2023-09-08T16:01:20.417Z,101545.56
2023-09-08T16:03:47.125Z,101547.13
2023-09-08T16:06:14.037Z,101537.53
2023-09-08T16:08:40.666Z,101541.19
2023-09-08T16:11:07.773Z,101538.03
2023-09-08T16:13:34.451Z,101537.28
2023-09-08T16:16:01.373Z,101539.22
2023-09-08T16:18:28.022Z,101536.69
2023-09-08T16:20:54.610Z,101539.59
2023-09-08T16:23:21.170Z,101544.50
2023-09-08T16:25:47.973Z,101541.22
2023-09-08T16:28:14.584Z,101541.06
2023-09-08T16:30:41.172Z,101538.38
2023-09-08T16:33:08.033Z,101535.72
2023-09-08T16:35:35.394Z,101534.75
2023-09-08T16:38:01.890Z,101541.06
2023-09-08T16:40:28.403Z,101548.41
2023-09-08T16:42:54.907Z,101541.56
2023-09-08T16:45:21.511Z,101538.75
2023-09-08T16:47:48.073Z,101534.38
2023-09-08T16:50:14.678Z,101537.22
2023-09-08T16:52:41.238Z,101534.53
2023-09-08T16:55:08.007Z,101530.84
2023-09-08T16:57:34.498Z,101531.84
2023-09-08T17:00:01.195Z,101528.53
2023-09-08T17:02:28.478Z,101537.91
2023-09-08T17:04:55.140Z,101535.72
2023-09-08T17:07:21.751Z,101532.78
2023-09-08T17:09:48.364Z,101527.19
2023-09-08T17:12:14.931Z,101524.13
2023-09-08T17:14:41.442Z,101521.06
2023-09-08T17:17:07.957Z,101525.22
2023-09-08T17:19:34.436Z,101528.38
2023-09-08T17:22:01.093Z,101521.91
2023-09-08T17:24:27.751Z,101519.28
2023-09-08T17:26:57.948Z,101529.00
2023-09-08T17:29:24.569Z,101522.66
2023-09-08T17:31:51.068Z,101533.06
2023-09-08T17:34:21.790Z,101520.41
2023-09-08T17:36:52.827Z,101531.78
2023-09-08T17:39:19.340Z,101525.38
2023-09-08T17:41:45.827Z,101530.44
2023-09-08T17:44:12.387Z,101543.53
2023-09-08T17:46:39.439Z,101543.25
2023-09-08T17:49:06.309Z,101543.94
2023-09-08T17:51:32.812Z,101541.19
2023-09-08T17:53:59.342Z,101541.78
2023-09-08T17:56:25.904Z,101544.38
2023-09-08T17:58:52.468Z,101541.53
2023-09-08T18:01:19.081Z,101545.69
2023-09-08T18:03:48.846Z,101549.03
2023-09-08T18:06:15.920Z,101550.50
2023-09-08T18:08:42.444Z,101543.84
2023-09-08T18:11:09.001Z,101549.75
2023-09-08T18:13:35.755Z,101537.78
2023-09-08T18:16:04.585Z,101549.81
2023-09-08T18:18:31.938Z,101554.84
2023-09-08T18:20:58.498Z,101565.94
2023-09-08T18:23:25.019Z,101564.66
2023-09-08T18:25:53.396Z,101554.56
2023-09-08T18:28:20.086Z,101558.69
2023-09-08T18:30:46.626Z,101554.94
2023-09-08T18:33:13.179Z,101553.94
2023-09-08T18:35:39.760Z,101557.19
2023-09-08T18:38:06.560Z,101559.53
2023-09-08T18:40:33.531Z,101553.81
2023-09-08T18:43:00.516Z,101558.00
2023-09-08T18:45:27.118Z,101562.97
2023-09-08T18:47:53.679Z,101561.75
2023-09-08T18:50:20.230Z,101561.28
2023-09-08T18:52:46.756Z,101560.81
2023-09-08T18:55:13.235Z,101555.97
2023-09-08T18:57:39.734Z,101559.94
2023-09-08T19:00:07.006Z,101563.97
2023-09-08T19:02:33.861Z,101555.59
2023-09-08T19:05:00.610Z,101564.88
2023-09-08T19:07:28.381Z,101567.91
2023-09-08T19:09:54.900Z,101567.41
2023-09-08T19:12:21.485Z,101565.97
2023-09-08T19:14:53.302Z,101564.47
2023-09-08T19:17:19.842Z,101564.84
2023-09-08T19:19:46.415Z,101578.50
2023-09-08T19:22:13.267Z,101580.59
2023-09-08T19:24:42.725Z,101583.53
2023-09-08T19:27:09.258Z,101582.09
2023-09-08T19:29:35.745Z,101585.00
2023-09-08T19:32:02.459Z,101583.72
2023-09-08T19:34:29.079Z,101587.59
2023-09-08T19:36:55.585Z,101580.91
2023-09-08T19:39:22.498Z,101581.25
2023-09-08T19:41:49.125Z,101577.16
2023-09-08T19:44:15.612Z,101586.44
2023-09-08T19:46:42.246Z,101590.41
2023-09-08T19:49:08.783Z,101590.75
2023-09-08T19:51:35.390Z,101584.06
2023-09-08T19:54:02.092Z,101589.63
2023-09-08T19:56:29.545Z,101578.44
2023-09-08T19:58:56.001Z,101590.09
2023-09-08T20:01:22.813Z,101585.91
2023-09-08T20:03:49.344Z,101584.44
2023-09-08T20:06:16.584Z,101578.53
2023-09-08T20:08:43.192Z,101584.06
2023-09-08T20:11:10.109Z,101587.00
2023-09-08T20:13:36.984Z,101580.06
2023-09-08T20:16:06.106Z,101590.16
2023-09-08T20:18:33.238Z,101591.25
2023-09-08T20:21:01.074Z,101592.34
2023-09-08T20:23:27.606Z,101586.38
2023-09-08T20:25:54.146Z,101592.69
2023-09-08T20:28:20.689Z,101599.03
2023-09-08T20:31:04.972Z,101593.19
2023-09-08T20:33:38.341Z,101590.59
2023-09-08T20:36:05.824Z,101593.56
2023-09-08T20:38:32.447Z,101591.94
2023-09-08T20:40:59.141Z,101590.34
2023-09-08T20:43:25.703Z,101584.38
2023-09-08T20:45:55.804Z,101588.13
2023-09-08T20:48:23.167Z,101598.03
2023-09-08T20:50:59.210Z,101586.78
2023-09-08T20:53:25.718Z,101595.63
2023-09-08T20:55:52.245Z,101594.06
2023-09-08T20:58:18.854Z,101598.66
2023-09-08T21:00:45.435Z,101598.84
2023-09-08T21:03:12.371Z,101595.38
2023-09-08T21:05:38.935Z,101591.13
2023-09-08T21:08:05.966Z,101589.38
2023-09-08T21:10:33.201Z,101588.66
2023-09-08T21:12:59.775Z,101579.94
2023-09-08T21:15:26.370Z,101581.81
2023-09-08T21:17:53.068Z,101581.97
2023-09-08T21:20:19.712Z,101582.97
2023-09-08T21:22:46.292Z,101578.78
2023-09-08T21:25:12.810Z,101582.59
2023-09-08T21:27:39.292Z,101581.16
2023-09-08T21:30:06.661Z,101582.16
2023-09-08T21:32:33.304Z,101585.81
2023-09-08T21:34:59.897Z,101584.19
2023-09-08T21:37:26.490Z,101585.19
2023-09-08T21:39:52.994Z,101581.75
2023-09-08T21:42:19.601Z,101577.38
2023-09-08T21:44:46.384Z,101583.63
2023-09-08T21:47:12.951Z,101579.25
2023-09-08T21:49:39.523Z,101573.19
2023-09-08T21:52:06.381Z,101574.16
2023-09-08T21:54:32.920Z,101576.88
2023-09-08T21:56:59.458Z,101582.19
2023-09-08T21:59:26.208Z,101585.88
2023-09-08T22:01:52.770Z,101572.69
2023-09-08T22:04:19.445Z,101572.69
2023-09-08T22:06:46.244Z,101563.16
2023-09-08T22:09:12.737Z,101579.22
2023-09-08T22:11:39.267Z,101577.59
2023-09-08T22:14:05.752Z,101578.50
2023-09-08T22:16:32.358Z,101573.28
2023-09-08T22:18:58.887Z,101575.22
2023-09-08T22:21:25.458Z,101569.19
2023-09-08T22:23:52.191Z,101571.09
2023-09-08T22:26:20.063Z,101564.06
2023-09-08T22:28:50.442Z,101572.94
2023-09-08T22:31:17.226Z,101573.97
2023-09-08T22:33:44.200Z,101572.25
2023-09-08T22:36:11.118Z,101574.03
2023-09-08T22:38:37.750Z,101569.66
2023-09-08T22:41:04.305Z,101567.94
2023-09-08T22:43:30.788Z,101566.31
2023-09-08T22:45:57.396Z,101566.38
2023-09-08T22:48:23.984Z,101570.88
2023-09-08T22:50:50.985Z,101576.28
2023-09-08T22:53:18.446Z,101571.97
2023-09-08T22:55:45.382Z,101572.06
2023-09-08T22:58:16.130Z,101573.00
2023-09-08T23:00:42.811Z,101573.13
2023-09-08T23:03:09.471Z,101579.38
2023-09-08T23:05:36.151Z,101578.59
2023-09-08T23:08:02.745Z,101580.44
2023-09-08T23:10:29.321Z,101572.56
2023-09-08T23:12:56.084Z,101570.78
2023-09-08T23:15:23.099Z,101579.53
2023-09-08T23:17:49.741Z,101574.22
2023-09-08T23:20:16.512Z,101574.16
2023-09-08T23:22:44.377Z,101563.56
2023-09-08T23:25:11.098Z,101564.34
2023-09-08T23:27:37.833Z,101566.91
2023-09-08T23:30:05.125Z,101563.34
2023-09-08T23:32:31.676Z,101563.34
2023-09-08T23:34:59.866Z,101561.63
2023-09-08T23:37:26.433Z,101571.22
2023-09-08T23:39:53.079Z,101566.75
2023-09-08T23:42:19.626Z,101560.63
2023-09-08T23:44:46.186Z,101563.34
2023-09-08T23:47:12.748Z,101561.63
2023-09-08T23:49:39.304Z,101562.53
2023-09-08T23:52:05.847Z,101559.91
2023-09-08T23:54:32.381Z,101561.69
2023-09-08T23:56:59.097Z,101560.91
2023-09-08T23:59:25.876Z,101558.34
